Jefferson Hills, Pennsylvania
Current Conditions -  °F | °C
As of 3:27 AM on Tuesday 21 Oct 2014 (Local Time) from KAGC Reporting Station
Overcast Overcast  
Wind Chill: 46°   Ceiling: 3000
Heat Index: 49°   Visibility: 9mi
Dew Point: 45°   Wind: 7mph
Humidity: 86%   Direction: 210°SSW
Pressure: 29.84"   Gusts: NA
Location:  40.2958°N, 79.9241°W
Report Text: KAGC 210727Z 21006KT 9SM SCT020 BKN030 OVC046 09/07 A2984 RMK AO2 RAE14 P0002 T00940072
Loading
Personal Weather Stations






























Interactive Weather Map New forecast layout! Learn more

10-Day Weather Forecast

Advertisements
Track Severe Weather on mobile